Terminal Aerodrome Forecast
Issued by NWS

Home | Current Version | Previous Version | Graphics & Text | Print | Product List | Glossary On
Versions: 1 2 3 4 5 6 7 8 9 10 11 12 13 14 15 16 17 18 19 20 21 22 23
000
FTUS41 KCLE 020533
TAFFDY
TAF
KFDY 020533Z 0206/0306 06010KT 3SM SHRA BR OVC010
      TEMPO 0206/0208 2SM -TSRA OVC004CB
     FM020800 02008KT 4SM BR OVC004
     FM021600 04008KT P6SM OVC006
     FM022000 06006KT P6SM OVC012
     FM030200 04005KT P6SM OVC035=

USA.gov is the U.S. government's official web portal to all federal, state and local government web resources and services.